sensor_id;sensor_type;location;lat;lon;timestamp;temperature;humidity
39919;DHT22;25589;51.552;13.424;2023-06-10T00:01:41;21.90;99.90
39919;DHT22;25589;51.552;13.424;2023-06-10T00:04:07;21.90;99.90
39919;DHT22;25589;51.552;13.424;2023-06-10T00:06:32;21.90;99.90
39919;DHT22;25589;51.552;13.424;2023-06-10T00:09:04;21.80;99.90
39919;DHT22;25589;51.552;13.424;2023-06-10T00:11:31;21.80;99.90
39919;DHT22;25589;51.552;13.424;2023-06-10T00:13:57;21.70;99.90
39919;DHT22;25589;51.552;13.424;2023-06-10T00:16:23;21.70;99.90
39919;DHT22;25589;51.552;13.424;2023-06-10T00:18:49;21.70;99.90
39919;DHT22;25589;51.552;13.424;2023-06-10T00:21:16;21.60;99.90
39919;DHT22;25589;51.552;13.424;2023-06-10T00:23:42;21.60;99.90
39919;DHT22;25589;51.552;13.424;2023-06-10T00:26:09;21.50;99.90
39919;DHT22;25589;51.552;13.424;2023-06-10T00:28:34;21.40;99.90
39919;DHT22;25589;51.552;13.424;2023-06-10T00:31:00;21.40;99.90
39919;DHT22;25589;51.552;13.424;2023-06-10T00:33:25;21.30;99.90
39919;DHT22;25589;51.552;13.424;2023-06-10T00:35:51;21.30;99.90
39919;DHT22;25589;51.552;13.424;2023-06-10T00:38:17;21.20;99.90
39919;DHT22;25589;51.552;13.424;2023-06-10T00:40:42;21.20;99.90
39919;DHT22;25589;51.552;13.424;2023-06-10T00:43:09;21.20;99.90
39919;DHT22;25589;51.552;13.424;2023-06-10T00:45:34;21.20;99.90
39919;DHT22;25589;51.552;13.424;2023-06-10T00:48:01;21.10;99.90
39919;DHT22;25589;51.552;13.424;2023-06-10T00:50:27;21.10;99.90
39919;DHT22;25589;51.552;13.424;2023-06-10T00:52:54;21.00;99.90
39919;DHT22;25589;51.552;13.424;2023-06-10T00:55:20;21.00;99.90
39919;DHT22;25589;51.552;13.424;2023-06-10T00:57:46;21.00;99.90
39919;DHT22;25589;51.552;13.424;2023-06-10T01:00:14;21.00;99.90
39919;DHT22;25589;51.552;13.424;2023-06-10T01:02:41;21.00;99.90
39919;DHT22;25589;51.552;13.424;2023-06-10T01:05:07;21.00;99.90
39919;DHT22;25589;51.552;13.424;2023-06-10T01:07:40;21.00;99.90
39919;DHT22;25589;51.552;13.424;2023-06-10T01:10:15;20.90;99.90
39919;DHT22;25589;51.552;13.424;2023-06-10T01:13:00;20.80;99.90
39919;DHT22;25589;51.552;13.424;2023-06-10T01:15:30;20.80;99.90
39919;DHT22;25589;51.552;13.424;2023-06-10T01:18:01;20.60;99.90
39919;DHT22;25589;51.552;13.424;2023-06-10T01:20:31;20.60;99.90
39919;DHT22;25589;51.552;13.424;2023-06-10T01:23:01;20.50;99.90
39919;DHT22;25589;51.552;13.424;2023-06-10T01:25:29;20.40;99.90
39919;DHT22;25589;51.552;13.424;2023-06-10T01:28:14;20.40;99.90
39919;DHT22;25589;51.552;13.424;2023-06-10T01:33:25;20.40;99.90
39919;DHT22;25589;51.552;13.424;2023-06-10T01:35:57;20.30;99.90
39919;DHT22;25589;51.552;13.424;2023-06-10T01:38:25;20.20;99.90
39919;DHT22;25589;51.552;13.424;2023-06-10T01:40:53;20.00;99.90
39919;DHT22;25589;51.552;13.424;2023-06-10T01:43:20;20.00;99.90
39919;DHT22;25589;51.552;13.424;2023-06-10T01:45:46;19.90;99.90
39919;DHT22;25589;51.552;13.424;2023-06-10T01:48:12;19.90;99.90
39919;DHT22;25589;51.552;13.424;2023-06-10T01:50:37;19.90;99.90
39919;DHT22;25589;51.552;13.424;2023-06-10T01:53:04;19.90;99.90
39919;DHT22;25589;51.552;13.424;2023-06-10T01:55:31;19.90;99.90
39919;DHT22;25589;51.552;13.424;2023-06-10T01:57:56;19.90;99.90
39919;DHT22;25589;51.552;13.424;2023-06-10T02:00:23;20.00;99.90
39919;DHT22;25589;51.552;13.424;2023-06-10T02:02:48;19.90;99.90
39919;DHT22;25589;51.552;13.424;2023-06-10T02:05:14;19.90;99.90
39919;DHT22;25589;51.552;13.424;2023-06-10T02:07:41;19.90;99.90
39919;DHT22;25589;51.552;13.424;2023-06-10T02:10:07;19.90;99.90
39919;DHT22;25589;51.552;13.424;2023-06-10T02:12:33;19.80;99.90
39919;DHT22;25589;51.552;13.424;2023-06-10T02:14:58;19.70;99.90
39919;DHT22;25589;51.552;13.424;2023-06-10T02:17:24;19.70;99.90
39919;DHT22;25589;51.552;13.424;2023-06-10T02:19:50;19.60;99.90
39919;DHT22;25589;51.552;13.424;2023-06-10T02:22:21;19.70;99.90
39919;DHT22;25589;51.552;13.424;2023-06-10T02:24:47;19.70;99.90
39919;DHT22;25589;51.552;13.424;2023-06-10T02:27:13;19.60;99.90
39919;DHT22;25589;51.552;13.424;2023-06-10T02:29:39;19.50;99.90
39919;DHT22;25589;51.552;13.424;2023-06-10T02:32:05;19.50;99.90
39919;DHT22;25589;51.552;13.424;2023-06-10T02:34:31;19.50;99.90
39919;DHT22;25589;51.552;13.424;2023-06-10T02:36:57;19.50;99.90
39919;DHT22;25589;51.552;13.424;2023-06-10T02:39:23;19.50;99.90
39919;DHT22;25589;51.552;13.424;2023-06-10T02:41:49;19.40;99.90
39919;DHT22;25589;51.552;13.424;2023-06-10T02:44:17;19.40;99.90
39919;DHT22;25589;51.552;13.424;2023-06-10T02:46:44;19.40;99.90
39919;DHT22;25589;51.552;13.424;2023-06-10T02:49:11;19.30;99.90
39919;DHT22;25589;51.552;13.424;2023-06-10T02:51:37;19.20;99.90
39919;DHT22;25589;51.552;13.424;2023-06-10T02:54:03;19.10;99.90
39919;DHT22;25589;51.552;13.424;2023-06-10T02:56:29;19.10;99.90
39919;DHT22;25589;51.552;13.424;2023-06-10T02:58:59;19.00;99.90
39919;DHT22;25589;51.552;13.424;2023-06-10T03:01:26;19.00;99.90
39919;DHT22;25589;51.552;13.424;2023-06-10T03:03:59;19.00;99.90
39919;DHT22;25589;51.552;13.424;2023-06-10T03:06:24;19.00;99.90
39919;DHT22;25589;51.552;13.424;2023-06-10T03:08:51;18.90;99.90
39919;DHT22;25589;51.552;13.424;2023-06-10T03:11:18;18.90;99.90
39919;DHT22;25589;51.552;13.424;2023-06-10T03:13:45;18.90;99.90
39919;DHT22;25589;51.552;13.424;2023-06-10T03:16:14;18.90;99.90
39919;DHT22;25589;51.552;13.424;2023-06-10T03:18:40;18.90;99.90
39919;DHT22;25589;51.552;13.424;2023-06-10T03:21:07;18.70;99.90
39919;DHT22;25589;51.552;13.424;2023-06-10T03:23:34;18.70;99.90
39919;DHT22;25589;51.552;13.424;2023-06-10T03:26:01;18.50;99.90
39919;DHT22;25589;51.552;13.424;2023-06-10T03:28:29;18.50;99.90
39919;DHT22;25589;51.552;13.424;2023-06-10T03:30:55;18.50;99.90
39919;DHT22;25589;51.552;13.424;2023-06-10T03:33:23;18.50;99.90
39919;DHT22;25589;51.552;13.424;2023-06-10T03:35:49;18.40;99.90
39919;DHT22;25589;51.552;13.424;2023-06-10T03:38:16;18.40;99.90
39919;DHT22;25589;51.552;13.424;2023-06-10T03:40:42;18.60;99.90
39919;DHT22;25589;51.552;13.424;2023-06-10T03:43:08;18.70;99.90
39919;DHT22;25589;51.552;13.424;2023-06-10T03:45:35;18.80;99.90
39919;DHT22;25589;51.552;13.424;2023-06-10T03:48:01;18.80;99.90
39919;DHT22;25589;51.552;13.424;2023-06-10T03:50:37;18.70;99.90
39919;DHT22;25589;51.552;13.424;2023-06-10T03:53:03;18.70;99.90
39919;DHT22;25589;51.552;13.424;2023-06-10T03:55:28;18.70;99.90
39919;DHT22;25589;51.552;13.424;2023-06-10T03:57:56;18.70;99.90
39919;DHT22;25589;51.552;13.424;2023-06-10T04:00:22;18.70;99.90
39919;DHT22;25589;51.552;13.424;2023-06-10T04:02:48;18.70;99.90
39919;DHT22;25589;51.552;13.424;2023-06-10T04:05:25;18.70;99.90
39919;DHT22;25589;51.552;13.424;2023-06-10T04:07:51;18.60;99.90
39919;DHT22;25589;51.552;13.424;2023-06-10T04:10:17;18.70;99.90
39919;DHT22;25589;51.552;13.424;2023-06-10T04:12:44;18.60;99.90
39919;DHT22;25589;51.552;13.424;2023-06-10T04:15:10;18.70;99.90
39919;DHT22;25589;51.552;13.424;2023-06-10T04:17:37;18.70;99.90
39919;DHT22;25589;51.552;13.424;2023-06-10T04:20:02;18.70;99.90
39919;DHT22;25589;51.552;13.424;2023-06-10T04:22:32;18.80;99.90
39919;DHT22;25589;51.552;13.424;2023-06-10T04:24:57;18.80;99.90
39919;DHT22;25589;51.552;13.424;2023-06-10T04:27:24;18.80;99.90
39919;DHT22;25589;51.552;13.424;2023-06-10T04:29:50;18.90;99.90
39919;DHT22;25589;51.552;13.424;2023-06-10T04:32:16;18.80;99.90
39919;DHT22;25589;51.552;13.424;2023-06-10T04:34:42;18.70;99.90
39919;DHT22;25589;51.552;13.424;2023-06-10T04:37:08;18.70;99.90
39919;DHT22;25589;51.552;13.424;2023-06-10T04:39:34;18.60;99.90
39919;DHT22;25589;51.552;13.424;2023-06-10T04:42:00;18.70;99.90
39919;DHT22;25589;51.552;13.424;2023-06-10T04:44:28;18.80;99.90
39919;DHT22;25589;51.552;13.424;2023-06-10T04:46:53;18.80;99.90
39919;DHT22;25589;51.552;13.424;2023-06-10T04:49:20;18.90;99.90
39919;DHT22;25589;51.552;13.424;2023-06-10T04:51:46;19.00;99.90
39919;DHT22;25589;51.552;13.424;2023-06-10T04:54:11;19.00;99.90
39919;DHT22;25589;51.552;13.424;2023-06-10T04:56:37;19.00;99.90
39919;DHT22;25589;51.552;13.424;2023-06-10T04:59:02;19.10;99.90
39919;DHT22;25589;51.552;13.424;2023-06-10T05:01:28;19.10;99.90
39919;DHT22;25589;51.552;13.424;2023-06-10T05:03:53;19.10;99.90
39919;DHT22;25589;51.552;13.424;2023-06-10T05:06:19;19.20;99.90
39919;DHT22;25589;51.552;13.424;2023-06-10T05:08:45;19.30;99.90
39919;DHT22;25589;51.552;13.424;2023-06-10T05:11:10;19.30;99.90
39919;DHT22;25589;51.552;13.424;2023-06-10T05:13:36;19.40;99.90
39919;DHT22;25589;51.552;13.424;2023-06-10T05:16:01;19.40;99.90
39919;DHT22;25589;51.552;13.424;2023-06-10T05:18:27;19.40;99.90
39919;DHT22;25589;51.552;13.424;2023-06-10T05:20:53;19.50;99.90
39919;DHT22;25589;51.552;13.424;2023-06-10T05:23:19;19.50;99.90
39919;DHT22;25589;51.552;13.424;2023-06-10T05:25:45;19.50;99.90
39919;DHT22;25589;51.552;13.424;2023-06-10T05:28:11;19.50;99.90
39919;DHT22;25589;51.552;13.424;2023-06-10T05:30:36;19.60;99.90
39919;DHT22;25589;51.552;13.424;2023-06-10T05:33:03;19.70;99.90
39919;DHT22;25589;51.552;13.424;2023-06-10T05:35:29;19.60;99.90
39919;DHT22;25589;51.552;13.424;2023-06-10T05:37:55;19.60;99.90
39919;DHT22;25589;51.552;13.424;2023-06-10T05:40:20;19.80;99.90
39919;DHT22;25589;51.552;13.424;2023-06-10T05:42:46;19.80;99.90
39919;DHT22;25589;51.552;13.424;2023-06-10T05:45:11;19.90;99.90
39919;DHT22;25589;51.552;13.424;2023-06-10T05:47:37;19.70;99.90
39919;DHT22;25589;51.552;13.424;2023-06-10T05:50:03;19.80;99.90
39919;DHT22;25589;51.552;13.424;2023-06-10T05:52:33;19.80;99.90
39919;DHT22;25589;51.552;13.424;2023-06-10T05:54:58;19.90;99.90
39919;DHT22;25589;51.552;13.424;2023-06-10T05:57:25;20.00;99.90
39919;DHT22;25589;51.552;13.424;2023-06-10T05:59:51;20.00;99.90
39919;DHT22;25589;51.552;13.424;2023-06-10T06:02:17;20.10;99.90
39919;DHT22;25589;51.552;13.424;2023-06-10T06:04:42;20.20;99.90
39919;DHT22;25589;51.552;13.424;2023-06-10T06:07:08;20.20;99.90
39919;DHT22;25589;51.552;13.424;2023-06-10T06:09:34;20.30;99.90
39919;DHT22;25589;51.552;13.424;2023-06-10T06:11:59;20.40;99.90
39919;DHT22;25589;51.552;13.424;2023-06-10T06:14:25;20.40;99.90
39919;DHT22;25589;51.552;13.424;2023-06-10T06:16:50;20.50;99.90
39919;DHT22;25589;51.552;13.424;2023-06-10T06:19:16;20.50;99.90
39919;DHT22;25589;51.552;13.424;2023-06-10T06:21:41;20.60;99.90
39919;DHT22;25589;51.552;13.424;2023-06-10T06:24:07;20.70;99.90
39919;DHT22;25589;51.552;13.424;2023-06-10T06:26:33;20.70;99.90
39919;DHT22;25589;51.552;13.424;2023-06-10T06:28:58;20.70;99.90
39919;DHT22;25589;51.552;13.424;2023-06-10T06:31:24;20.90;99.90
39919;DHT22;25589;51.552;13.424;2023-06-10T06:33:49;20.90;99.90
39919;DHT22;25589;51.552;13.424;2023-06-10T06:36:15;20.90;99.90
39919;DHT22;25589;51.552;13.424;2023-06-10T06:38:40;20.80;99.90
39919;DHT22;25589;51.552;13.424;2023-06-10T06:41:06;20.90;99.90
39919;DHT22;25589;51.552;13.424;2023-06-10T06:43:32;21.00;99.90
39919;DHT22;25589;51.552;13.424;2023-06-10T06:46:03;21.10;99.90
39919;DHT22;25589;51.552;13.424;2023-06-10T06:48:29;21.20;99.90
39919;DHT22;25589;51.552;13.424;2023-06-10T06:50:54;21.30;99.90
39919;DHT22;25589;51.552;13.424;2023-06-10T06:53:21;21.40;99.90
39919;DHT22;25589;51.552;13.424;2023-06-10T06:55:47;21.40;99.90
39919;DHT22;25589;51.552;13.424;2023-06-10T06:58:12;21.50;99.90
39919;DHT22;25589;51.552;13.424;2023-06-10T07:00:38;21.60;99.90
39919;DHT22;25589;51.552;13.424;2023-06-10T07:03:04;21.70;99.90
39919;DHT22;25589;51.552;13.424;2023-06-10T07:05:29;21.80;99.90
39919;DHT22;25589;51.552;13.424;2023-06-10T07:07:56;21.80;99.90
39919;DHT22;25589;51.552;13.424;2023-06-10T07:10:24;21.90;99.90
39919;DHT22;25589;51.552;13.424;2023-06-10T07:12:51;22.00;99.90
39919;DHT22;25589;51.552;13.424;2023-06-10T07:15:16;22.10;99.90
39919;DHT22;25589;51.552;13.424;2023-06-10T07:17:42;22.20;99.90
39919;DHT22;25589;51.552;13.424;2023-06-10T07:20:09;22.30;99.90
39919;DHT22;25589;51.552;13.424;2023-06-10T07:22:35;22.40;99.90
39919;DHT22;25589;51.552;13.424;2023-06-10T07:25:01;22.50;99.90
39919;DHT22;25589;51.552;13.424;2023-06-10T07:27:26;22.50;99.90
39919;DHT22;25589;51.552;13.424;2023-06-10T07:29:52;22.50;99.90
39919;DHT22;25589;51.552;13.424;2023-06-10T07:32:18;22.60;99.90
39919;DHT22;25589;51.552;13.424;2023-06-10T07:34:45;22.80;99.90
39919;DHT22;25589;51.552;13.424;2023-06-10T07:37:11;22.80;99.90
39919;DHT22;25589;51.552;13.424;2023-06-10T07:39:36;22.90;99.90
39919;DHT22;25589;51.552;13.424;2023-06-10T07:42:02;22.90;99.90
39919;DHT22;25589;51.552;13.424;2023-06-10T07:44:30;23.00;99.90
39919;DHT22;25589;51.552;13.424;2023-06-10T07:46:55;23.20;99.90
39919;DHT22;25589;51.552;13.424;2023-06-10T07:49:23;23.30;99.90
39919;DHT22;25589;51.552;13.424;2023-06-10T07:51:49;23.40;99.90
39919;DHT22;25589;51.552;13.424;2023-06-10T07:54:15;23.40;99.90
39919;DHT22;25589;51.552;13.424;2023-06-10T07:56:40;23.50;99.90
39919;DHT22;25589;51.552;13.424;2023-06-10T07:59:06;23.60;99.90
39919;DHT22;25589;51.552;13.424;2023-06-10T08:01:31;23.70;99.90
39919;DHT22;25589;51.552;13.424;2023-06-10T08:03:58;23.80;99.90
39919;DHT22;25589;51.552;13.424;2023-06-10T08:06:23;23.90;99.90
39919;DHT22;25589;51.552;13.424;2023-06-10T08:08:49;24.10;99.90
39919;DHT22;25589;51.552;13.424;2023-06-10T08:11:15;24.30;99.90
39919;DHT22;25589;51.552;13.424;2023-06-10T08:13:40;24.50;99.90
39919;DHT22;25589;51.552;13.424;2023-06-10T08:16:06;24.50;99.90
39919;DHT22;25589;51.552;13.424;2023-06-10T08:18:31;24.60;99.90
39919;DHT22;25589;51.552;13.424;2023-06-10T08:20:57;24.70;99.90
39919;DHT22;25589;51.552;13.424;2023-06-10T08:23:23;24.80;99.90
39919;DHT22;25589;51.552;13.424;2023-06-10T08:25:48;25.00;99.90
39919;DHT22;25589;51.552;13.424;2023-06-10T08:28:14;25.10;99.90
39919;DHT22;25589;51.552;13.424;2023-06-10T08:30:40;25.20;99.90
39919;DHT22;25589;51.552;13.424;2023-06-10T08:33:05;25.30;99.90
39919;DHT22;25589;51.552;13.424;2023-06-10T08:35:31;25.40;99.90
39919;DHT22;25589;51.552;13.424;2023-06-10T08:37:57;25.60;99.90
39919;DHT22;25589;51.552;13.424;2023-06-10T08:40:22;25.80;99.90
39919;DHT22;25589;51.552;13.424;2023-06-10T08:43:05;25.90;99.90
39919;DHT22;25589;51.552;13.424;2023-06-10T08:45:35;26.00;99.90
39919;DHT22;25589;51.552;13.424;2023-06-10T08:48:05;26.10;99.90
39919;DHT22;25589;51.552;13.424;2023-06-10T08:50:37;26.20;99.90
39919;DHT22;25589;51.552;13.424;2023-06-10T08:53:05;26.30;99.90
39919;DHT22;25589;51.552;13.424;2023-06-10T08:55:37;26.50;99.90
39919;DHT22;25589;51.552;13.424;2023-06-10T08:58:03;26.60;99.90
39919;DHT22;25589;51.552;13.424;2023-06-10T09:00:31;26.70;99.90
39919;DHT22;25589;51.552;13.424;2023-06-10T09:02:58;26.80;99.90
39919;DHT22;25589;51.552;13.424;2023-06-10T09:05:24;26.80;99.90
39919;DHT22;25589;51.552;13.424;2023-06-10T09:07:52;26.80;99.30
39919;DHT22;25589;51.552;13.424;2023-06-10T09:10:17;26.90;99.30
39919;DHT22;25589;51.552;13.424;2023-06-10T09:12:43;27.20;97.60
39919;DHT22;25589;51.552;13.424;2023-06-10T09:15:09;27.40;97.80
39919;DHT22;25589;51.552;13.424;2023-06-10T09:17:37;27.40;96.70
39919;DHT22;25589;51.552;13.424;2023-06-10T09:20:03;27.50;95.00
39919;DHT22;25589;51.552;13.424;2023-06-10T09:22:29;27.70;93.30
39919;DHT22;25589;51.552;13.424;2023-06-10T09:25:06;27.80;92.20
39919;DHT22;25589;51.552;13.424;2023-06-10T09:27:47;27.90;90.80
39919;DHT22;25589;51.552;13.424;2023-06-10T09:30:30;27.90;90.60
39919;DHT22;25589;51.552;13.424;2023-06-10T09:32:57;28.10;89.00
39919;DHT22;25589;51.552;13.424;2023-06-10T09:35:26;28.20;88.30
39919;DHT22;25589;51.552;13.424;2023-06-10T09:37:59;28.20;88.50
39919;DHT22;25589;51.552;13.424;2023-06-10T09:40:25;28.40;87.60
39919;DHT22;25589;51.552;13.424;2023-06-10T09:42:58;28.40;86.80
39919;DHT22;25589;51.552;13.424;2023-06-10T09:45:29;28.60;85.60
39919;DHT22;25589;51.552;13.424;2023-06-10T09:47:55;28.70;84.60
39919;DHT22;25589;51.552;13.424;2023-06-10T09:50:21;28.80;84.00
39919;DHT22;25589;51.552;13.424;2023-06-10T09:52:47;28.90;83.70
39919;DHT22;25589;51.552;13.424;2023-06-10T09:55:13;29.10;81.90
39919;DHT22;25589;51.552;13.424;2023-06-10T09:57:39;29.40;80.00
39919;DHT22;25589;51.552;13.424;2023-06-10T10:00:08;29.40;78.70
39919;DHT22;25589;51.552;13.424;2023-06-10T10:02:47;29.50;78.30
39919;DHT22;25589;51.552;13.424;2023-06-10T10:05:15;29.50;77.90
39919;DHT22;25589;51.552;13.424;2023-06-10T10:07:41;29.30;78.20
39919;DHT22;25589;51.552;13.424;2023-06-10T10:10:07;29.10;79.10
39919;DHT22;25589;51.552;13.424;2023-06-10T10:12:34;29.20;78.80
39919;DHT22;25589;51.552;13.424;2023-06-10T10:15:01;29.10;78.90
39919;DHT22;25589;51.552;13.424;2023-06-10T10:17:28;29.20;77.80
39919;DHT22;25589;51.552;13.424;2023-06-10T10:19:58;29.40;77.40
39919;DHT22;25589;51.552;13.424;2023-06-10T10:22:35;29.40;76.80
39919;DHT22;25589;51.552;13.424;2023-06-10T10:25:02;29.30;76.20
39919;DHT22;25589;51.552;13.424;2023-06-10T10:27:35;29.20;76.20
39919;DHT22;25589;51.552;13.424;2023-06-10T10:30:01;29.30;76.50
39919;DHT22;25589;51.552;13.424;2023-06-10T10:32:39;29.50;75.20
39919;DHT22;25589;51.552;13.424;2023-06-10T10:35:14;29.40;74.50
39919;DHT22;25589;51.552;13.424;2023-06-10T10:37:41;29.50;74.30
39919;DHT22;25589;51.552;13.424;2023-06-10T10:40:08;29.70;73.70
39919;DHT22;25589;51.552;13.424;2023-06-10T10:42:34;30.00;72.20
39919;DHT22;25589;51.552;13.424;2023-06-10T10:45:00;30.10;70.80
39919;DHT22;25589;51.552;13.424;2023-06-10T10:47:27;29.80;70.60
39919;DHT22;25589;51.552;13.424;2023-06-10T10:49:56;29.80;70.90
39919;DHT22;25589;51.552;13.424;2023-06-10T10:52:43;30.00;70.50
39919;DHT22;25589;51.552;13.424;2023-06-10T10:55:14;30.00;70.60
39919;DHT22;25589;51.552;13.424;2023-06-10T10:57:40;30.20;68.20
39919;DHT22;25589;51.552;13.424;2023-06-10T11:00:06;30.50;67.40
39919;DHT22;25589;51.552;13.424;2023-06-10T11:02:34;30.60;65.70
39919;DHT22;25589;51.552;13.424;2023-06-10T11:05:01;30.40;66.20
39919;DHT22;25589;51.552;13.424;2023-06-10T11:07:30;30.40;67.00
39919;DHT22;25589;51.552;13.424;2023-06-10T11:10:03;30.80;65.70
39919;DHT22;25589;51.552;13.424;2023-06-10T11:12:51;30.90;64.90
39919;DHT22;25589;51.552;13.424;2023-06-10T11:15:24;31.10;64.10
39919;DHT22;25589;51.552;13.424;2023-06-10T11:31:32;32.30;58.80
39919;DHT22;25589;51.552;13.424;2023-06-10T11:33:59;32.40;58.70
39919;DHT22;25589;51.552;13.424;2023-06-10T11:36:26;32.00;59.30
39919;DHT22;25589;51.552;13.424;2023-06-10T11:38:56;31.70;58.60
39919;DHT22;25589;51.552;13.424;2023-06-10T11:41:24;31.80;57.40
39919;DHT22;25589;51.552;13.424;2023-06-10T11:43:51;32.00;56.70
39919;DHT22;25589;51.552;13.424;2023-06-10T11:46:17;32.00;57.40
39919;DHT22;25589;51.552;13.424;2023-06-10T11:48:51;31.80;58.40
39919;DHT22;25589;51.552;13.424;2023-06-10T11:51:16;32.00;57.70
39919;DHT22;25589;51.552;13.424;2023-06-10T11:53:46;32.30;56.40
39919;DHT22;25589;51.552;13.424;2023-06-10T11:56:11;32.60;54.30
39919;DHT22;25589;51.552;13.424;2023-06-10T11:58:40;32.90;53.00
39919;DHT22;25589;51.552;13.424;2023-06-10T12:01:09;32.50;54.30
39919;DHT22;25589;51.552;13.424;2023-06-10T12:03:38;32.50;55.00
39919;DHT22;25589;51.552;13.424;2023-06-10T12:06:05;32.60;52.90
39919;DHT22;25589;51.552;13.424;2023-06-10T12:08:31;32.70;52.50
39919;DHT22;25589;51.552;13.424;2023-06-10T12:10:57;33.00;52.50
39919;DHT22;25589;51.552;13.424;2023-06-10T12:13:26;33.00;51.80
39919;DHT22;25589;51.552;13.424;2023-06-10T12:15:52;32.70;51.70
39919;DHT22;25589;51.552;13.424;2023-06-10T12:18:22;32.60;51.60
39919;DHT22;25589;51.552;13.424;2023-06-10T12:20:49;32.20;50.80
39919;DHT22;25589;51.552;13.424;2023-06-10T12:23:16;31.70;50.70
39919;DHT22;25589;51.552;13.424;2023-06-10T12:25:53;31.90;50.80
39919;DHT22;25589;51.552;13.424;2023-06-10T12:28:22;32.30;50.30
39919;DHT22;25589;51.552;13.424;2023-06-10T12:30:48;32.70;49.10
39919;DHT22;25589;51.552;13.424;2023-06-10T12:33:21;32.70;47.60
39919;DHT22;25589;51.552;13.424;2023-06-10T12:35:56;32.80;47.50
39919;DHT22;25589;51.552;13.424;2023-06-10T12:38:22;33.10;48.10
39919;DHT22;25589;51.552;13.424;2023-06-10T12:40:50;33.50;48.00
39919;DHT22;25589;51.552;13.424;2023-06-10T12:43:34;33.70;47.80
39919;DHT22;25589;51.552;13.424;2023-06-10T12:46:09;33.70;47.30
39919;DHT22;25589;51.552;13.424;2023-06-10T12:48:35;33.20;47.40
39919;DHT22;25589;51.552;13.424;2023-06-10T12:51:01;33.20;47.70
39919;DHT22;25589;51.552;13.424;2023-06-10T12:53:26;33.30;47.40
39919;DHT22;25589;51.552;13.424;2023-06-10T12:55:52;33.50;47.30
39919;DHT22;25589;51.552;13.424;2023-06-10T12:58:22;33.40;47.70
39919;DHT22;25589;51.552;13.424;2023-06-10T13:00:48;33.40;48.20
39919;DHT22;25589;51.552;13.424;2023-06-10T13:03:14;33.20;48.50
39919;DHT22;25589;51.552;13.424;2023-06-10T13:05:40;33.30;48.00
39919;DHT22;25589;51.552;13.424;2023-06-10T13:08:07;33.30;46.50
39919;DHT22;25589;51.552;13.424;2023-06-10T13:10:33;33.10;46.20
39919;DHT22;25589;51.552;13.424;2023-06-10T13:13:00;32.90;46.00
39919;DHT22;25589;51.552;13.424;2023-06-10T13:15:26;32.80;46.90
39919;DHT22;25589;51.552;13.424;2023-06-10T13:17:52;33.00;46.00
39919;DHT22;25589;51.552;13.424;2023-06-10T13:20:18;32.80;46.20
39919;DHT22;25589;51.552;13.424;2023-06-10T13:22:44;32.70;46.80
39919;DHT22;25589;51.552;13.424;2023-06-10T13:25:10;32.80;46.10
39919;DHT22;25589;51.552;13.424;2023-06-10T13:27:36;32.90;45.90
39919;DHT22;25589;51.552;13.424;2023-06-10T13:30:09;32.90;45.80
39919;DHT22;25589;51.552;13.424;2023-06-10T13:32:38;32.70;46.30
39919;DHT22;25589;51.552;13.424;2023-06-10T13:35:04;32.20;46.80
39919;DHT22;25589;51.552;13.424;2023-06-10T13:37:30;32.10;46.70
39919;DHT22;25589;51.552;13.424;2023-06-10T13:39:56;31.80;46.70
39919;DHT22;25589;51.552;13.424;2023-06-10T13:42:22;31.60;47.50
39919;DHT22;25589;51.552;13.424;2023-06-10T13:44:48;31.60;47.60
39919;DHT22;25589;51.552;13.424;2023-06-10T13:47:14;31.80;48.00
39919;DHT22;25589;51.552;13.424;2023-06-10T13:49:40;31.80;47.60
39919;DHT22;25589;51.552;13.424;2023-06-10T13:52:07;31.80;48.50
39919;DHT22;25589;51.552;13.424;2023-06-10T13:54:33;32.10;50.10
39919;DHT22;25589;51.552;13.424;2023-06-10T13:56:58;32.60;49.80
39919;DHT22;25589;51.552;13.424;2023-06-10T13:59:25;32.90;49.40
39919;DHT22;25589;51.552;13.424;2023-06-10T14:01:51;33.10;49.10
39919;DHT22;25589;51.552;13.424;2023-06-10T14:04:16;33.10;48.70
39919;DHT22;25589;51.552;13.424;2023-06-10T14:06:42;33.10;48.50
39919;DHT22;25589;51.552;13.424;2023-06-10T14:09:08;33.30;47.60
39919;DHT22;25589;51.552;13.424;2023-06-10T14:11:33;33.30;47.30
39919;DHT22;25589;51.552;13.424;2023-06-10T14:13:59;33.40;46.80
39919;DHT22;25589;51.552;13.424;2023-06-10T14:16:26;33.50;46.30
39919;DHT22;25589;51.552;13.424;2023-06-10T14:18:51;33.50;46.20
39919;DHT22;25589;51.552;13.424;2023-06-10T14:21:17;33.80;46.10
39919;DHT22;25589;51.552;13.424;2023-06-10T14:23:43;33.90;46.00
39919;DHT22;25589;51.552;13.424;2023-06-10T14:26:09;33.90;45.20
39919;DHT22;25589;51.552;13.424;2023-06-10T14:28:35;33.60;45.40
39919;DHT22;25589;51.552;13.424;2023-06-10T14:31:01;33.50;45.70
39919;DHT22;25589;51.552;13.424;2023-06-10T14:33:26;33.30;46.30
39919;DHT22;25589;51.552;13.424;2023-06-10T14:35:52;33.10;47.00
39919;DHT22;25589;51.552;13.424;2023-06-10T14:38:17;33.00;47.10
39919;DHT22;25589;51.552;13.424;2023-06-10T14:40:43;33.20;46.70
39919;DHT22;25589;51.552;13.424;2023-06-10T14:43:09;33.00;46.70
39919;DHT22;25589;51.552;13.424;2023-06-10T14:45:44;32.80;46.60
39919;DHT22;25589;51.552;13.424;2023-06-10T14:48:10;32.60;46.50
39919;DHT22;25589;51.552;13.424;2023-06-10T14:50:37;32.30;46.90
39919;DHT22;25589;51.552;13.424;2023-06-10T14:53:03;32.20;47.00
39919;DHT22;25589;51.552;13.424;2023-06-10T14:55:29;32.10;47.40
39919;DHT22;25589;51.552;13.424;2023-06-10T14:57:54;32.00;47.40
39919;DHT22;25589;51.552;13.424;2023-06-10T15:00:21;32.00;47.70
39919;DHT22;25589;51.552;13.424;2023-06-10T15:02:51;32.00;47.50
39919;DHT22;25589;51.552;13.424;2023-06-10T15:05:17;32.20;47.60
39919;DHT22;25589;51.552;13.424;2023-06-10T15:07:44;32.80;47.10
39919;DHT22;25589;51.552;13.424;2023-06-10T15:10:10;33.30;46.30
39919;DHT22;25589;51.552;13.424;2023-06-10T15:12:36;33.80;45.30
39919;DHT22;25589;51.552;13.424;2023-06-10T15:15:02;34.30;44.80
39919;DHT22;25589;51.552;13.424;2023-06-10T15:17:28;34.70;43.60
39919;DHT22;25589;51.552;13.424;2023-06-10T15:19:54;35.10;42.50
39919;DHT22;25589;51.552;13.424;2023-06-10T15:22:19;35.30;41.50
39919;DHT22;25589;51.552;13.424;2023-06-10T15:24:45;35.50;41.30
39919;DHT22;25589;51.552;13.424;2023-06-10T15:27:10;35.60;41.60
39919;DHT22;25589;51.552;13.424;2023-06-10T15:29:36;35.70;42.40
39919;DHT22;25589;51.552;13.424;2023-06-10T15:32:02;35.90;42.70